createdAt,value
2022-07-26T00:00:15.463Z,3.85
2022-07-26T00:02:48.007Z,4.47
2022-07-26T00:05:17.280Z,4.70
2022-07-26T00:07:44.704Z,3.83
2022-07-26T00:10:12.603Z,4.13
2022-07-26T00:12:40.044Z,4.40
2022-07-26T00:15:10.269Z,5.60
2022-07-26T00:17:37.316Z,3.50
2022-07-26T00:20:05.127Z,2.70
2022-07-26T00:22:32.175Z,3.00
2022-07-26T00:24:59.180Z,5.32
2022-07-26T00:27:26.221Z,3.67
2022-07-26T00:29:53.485Z,5.65
2022-07-26T00:32:20.425Z,6.22
2022-07-26T00:34:47.355Z,4.35
2022-07-26T00:37:19.958Z,3.40
2022-07-26T00:39:47.311Z,3.05
2022-07-26T00:42:14.262Z,3.50
2022-07-26T00:44:43.593Z,5.32
2022-07-26T00:47:13.202Z,4.35
2022-07-26T00:49:40.861Z,2.85
2022-07-26T00:52:09.138Z,3.95
2022-07-26T00:54:38.055Z,2.85
2022-07-26T00:57:05.623Z,2.60
2022-07-26T00:59:32.978Z,3.20
2022-07-26T01:02:00.096Z,3.65
2022-07-26T01:04:27.214Z,4.32
2022-07-26T01:06:54.657Z,3.75
2022-07-26T01:09:21.624Z,4.25
2022-07-26T01:11:48.600Z,3.22
2022-07-26T01:14:15.856Z,4.25
2022-07-26T01:16:42.910Z,3.55
2022-07-26T01:19:09.939Z,4.85
2022-07-26T01:21:36.864Z,3.05
2022-07-26T01:24:04.199Z,5.00
2022-07-26T01:26:31.201Z,3.05
2022-07-26T01:28:58.204Z,6.35
2022-07-26T01:31:25.279Z,8.27
2022-07-26T01:33:52.603Z,4.20
2022-07-26T01:36:19.815Z,3.53
2022-07-26T01:38:46.808Z,3.03
2022-07-26T01:41:14.057Z,3.65
2022-07-26T01:43:41.153Z,4.68
2022-07-26T01:46:09.073Z,3.47
2022-07-26T01:48:37.058Z,3.78
2022-07-26T01:51:04.340Z,3.00
2022-07-26T01:53:31.453Z,4.60
2022-07-26T01:55:58.779Z,3.65
2022-07-26T01:58:25.673Z,3.90
2022-07-26T02:00:52.612Z,3.83
2022-07-26T02:03:19.538Z,2.78
2022-07-26T02:05:46.557Z,3.17
2022-07-26T02:08:13.624Z,2.60
2022-07-26T02:10:40.612Z,3.75
2022-07-26T02:13:07.830Z,4.30
2022-07-26T02:15:35.325Z,3.53
2022-07-26T02:18:02.293Z,3.92
2022-07-26T02:20:29.250Z,3.10
2022-07-26T02:22:56.138Z,5.10
2022-07-26T02:25:23.078Z,5.90
2022-07-26T02:27:50.174Z,18.00
2022-07-26T02:30:17.158Z,9.45
2022-07-26T02:32:44.148Z,6.25
2022-07-26T02:35:11.796Z,6.28
2022-07-26T02:37:43.920Z,3.58
2022-07-26T02:40:16.923Z,3.00
2022-07-26T02:42:45.983Z,9.63
2022-07-26T02:45:12.973Z,12.77
2022-07-26T02:47:50.743Z,6.85
2022-07-26T02:50:18.729Z,9.50
2022-07-26T02:52:46.193Z,5.15
2022-07-26T02:55:13.275Z,3.03
2022-07-26T02:57:45.488Z,4.55
2022-07-26T03:00:16.194Z,8.75
2022-07-26T03:02:43.441Z,8.20
2022-07-26T03:05:11.148Z,3.40
2022-07-26T03:07:38.386Z,5.15
2022-07-26T03:10:05.997Z,3.80
2022-07-26T03:12:33.023Z,4.93
2022-07-26T03:15:00.419Z,5.28
2022-07-26T03:17:27.389Z,3.53
2022-07-26T03:19:54.436Z,3.33
2022-07-26T03:22:21.356Z,3.80
2022-07-26T03:24:48.412Z,3.88
2022-07-26T03:27:15.480Z,6.38
2022-07-26T03:29:42.418Z,4.70
2022-07-26T03:32:09.325Z,5.00
2022-07-26T03:34:36.349Z,31.10
2022-07-26T03:37:03.748Z,16.95
2022-07-26T03:39:30.845Z,13.30
2022-07-26T03:41:57.901Z,10.20
2022-07-26T03:44:24.844Z,10.88
2022-07-26T03:46:51.956Z,13.82
2022-07-26T03:49:19.108Z,8.55
2022-07-26T03:51:46.124Z,13.88
2022-07-26T03:54:13.121Z,14.40
2022-07-26T03:56:40.648Z,8.82
2022-07-26T03:59:09.565Z,7.47
2022-07-26T04:01:38.127Z,8.10
2022-07-26T04:04:05.288Z,4.88
2022-07-26T04:09:05.568Z,3.60
2022-07-26T04:11:33.726Z,4.60
2022-07-26T04:14:01.611Z,7.97
2022-07-26T04:16:28.651Z,5.95
2022-07-26T04:18:55.741Z,6.72
2022-07-26T04:21:23.095Z,5.13
2022-07-26T04:23:51.535Z,5.55
2022-07-26T04:26:20.244Z,7.43
2022-07-26T04:28:47.518Z,5.13
2022-07-26T04:31:14.726Z,5.65
2022-07-26T04:33:42.161Z,6.30
2022-07-26T04:36:09.449Z,7.72
2022-07-26T04:38:36.447Z,9.13
2022-07-26T04:41:03.689Z,8.18
2022-07-26T04:43:30.713Z,9.13
2022-07-26T04:45:57.944Z,5.18
2022-07-26T04:48:25.383Z,8.90
2022-07-26T04:50:52.710Z,4.65
2022-07-26T04:53:19.894Z,6.35
2022-07-26T04:55:46.826Z,30.55
2022-07-26T04:58:13.841Z,18.63
2022-07-26T05:01:08.604Z,22.90
2022-07-26T05:03:27.892Z,7.00
2022-07-26T05:05:54.827Z,7.78
2022-07-26T05:08:21.918Z,4.55
2022-07-26T05:10:54.911Z,4.47
2022-07-26T05:13:23.182Z,4.35
2022-07-26T05:15:58.305Z,5.97
2022-07-26T05:18:25.962Z,4.35
2022-07-26T05:20:53.148Z,6.30
2022-07-26T05:23:20.051Z,6.85
2022-07-26T05:25:47.162Z,19.23
2022-07-26T05:28:14.492Z,6.05
2022-07-26T05:30:41.569Z,4.85
2022-07-26T05:33:08.600Z,5.40
2022-07-26T05:35:35.490Z,6.20
2022-07-26T05:38:02.560Z,6.15
2022-07-26T05:40:29.607Z,6.05
2022-07-26T05:42:56.682Z,3.75
2022-07-26T05:45:23.630Z,4.45
2022-07-26T05:47:51.320Z,6.90
2022-07-26T05:50:19.335Z,6.97
2022-07-26T05:52:46.473Z,5.53
2022-07-26T05:55:13.696Z,29.45
2022-07-26T05:57:40.905Z,4.97
2022-07-26T06:00:09.369Z,4.15
2022-07-26T06:02:39.409Z,5.88
2022-07-26T06:05:07.012Z,4.82
2022-07-26T06:07:34.351Z,7.25
2022-07-26T06:10:01.390Z,6.22
2022-07-26T06:12:28.361Z,10.73
2022-07-26T06:14:55.309Z,6.60
2022-07-26T06:17:22.355Z,6.55
2022-07-26T06:19:49.398Z,6.78
2022-07-26T06:22:16.501Z,6.38
2022-07-26T06:24:43.456Z,5.65
2022-07-26T06:27:10.391Z,7.20
2022-07-26T06:29:37.384Z,7.93
2022-07-26T06:32:04.451Z,8.48
2022-07-26T06:34:31.379Z,6.10
2022-07-26T06:36:59.072Z,15.88
2022-07-26T06:39:26.410Z,7.05
2022-07-26T06:41:53.879Z,7.65
2022-07-26T06:44:22.810Z,6.10
2022-07-26T06:46:49.926Z,9.05
2022-07-26T06:49:20.760Z,7.93
2022-07-26T06:51:49.360Z,6.20
2022-07-26T06:54:16.378Z,8.93
2022-07-26T06:56:43.368Z,9.82
2022-07-26T06:59:10.336Z,7.57
2022-07-26T07:01:58.364Z,6.57
2022-07-26T07:04:24.311Z,6.28
2022-07-26T07:06:51.370Z,10.15
2022-07-26T07:09:19.796Z,13.45
2022-07-26T07:11:48.425Z,6.85
2022-07-26T07:14:18.896Z,6.32
2022-07-26T07:16:45.959Z,7.18
2022-07-26T07:19:13.147Z,5.57
2022-07-26T07:21:40.065Z,7.93
2022-07-26T07:24:08.220Z,6.75
2022-07-26T07:26:35.344Z,7.25
2022-07-26T07:29:04.055Z,7.57
2022-07-26T07:31:48.968Z,6.20
2022-07-26T07:34:19.455Z,8.57
2022-07-26T07:36:47.143Z,5.57
2022-07-26T07:39:17.281Z,8.65
2022-07-26T07:41:45.854Z,4.18
2022-07-26T07:44:13.461Z,8.65
2022-07-26T07:46:41.159Z,23.58
2022-07-26T07:49:08.431Z,10.00
2022-07-26T07:51:36.227Z,8.75
2022-07-26T07:54:05.927Z,9.05
2022-07-26T07:56:33.626Z,7.93
2022-07-26T07:59:01.123Z,5.75
2022-07-26T08:01:39.791Z,5.32
2022-07-26T08:04:09.116Z,6.65
2022-07-26T08:06:36.968Z,7.35
2022-07-26T08:09:05.389Z,7.20
2022-07-26T08:11:33.830Z,7.15
2022-07-26T08:14:01.720Z,6.18
2022-07-26T08:16:28.835Z,7.63
2022-07-26T08:18:57.869Z,5.70
2022-07-26T08:21:28.076Z,6.47
2022-07-26T08:23:55.381Z,7.53
2022-07-26T08:26:22.302Z,9.77
2022-07-26T08:28:58.290Z,8.45
2022-07-26T08:31:26.582Z,7.38
2022-07-26T08:33:53.500Z,6.22
2022-07-26T08:36:20.454Z,4.88
2022-07-26T08:38:48.505Z,4.93
2022-07-26T08:41:17.300Z,5.38
2022-07-26T08:43:52.102Z,8.68
2022-07-26T08:46:27.107Z,23.77
2022-07-26T08:48:58.084Z,5.72
2022-07-26T08:51:26.500Z,4.80
2022-07-26T08:54:04.906Z,9.65
2022-07-26T08:56:37.807Z,7.15
2022-07-26T08:59:18.627Z,6.93
2022-07-26T09:01:59.594Z,8.38
2022-07-26T09:04:32.952Z,6.32
2022-07-26T09:07:11.944Z,10.90
2022-07-26T09:09:56.288Z,5.45
2022-07-26T09:12:24.932Z,4.93
2022-07-26T09:14:52.489Z,6.90
2022-07-26T09:17:21.640Z,6.88
2022-07-26T09:20:07.430Z,20.15
2022-07-26T09:22:34.349Z,6.80
2022-07-26T09:25:01.775Z,8.23
2022-07-26T09:27:36.011Z,8.30
2022-07-26T09:30:08.959Z,5.80
2022-07-26T09:32:35.974Z,6.43
2022-07-26T09:35:45.396Z,9.77
2022-07-26T09:38:12.773Z,8.82
2022-07-26T09:40:40.278Z,5.15
2022-07-26T09:43:09.952Z,48.03
2022-07-26T09:45:37.193Z,36.33
2022-07-26T09:48:04.847Z,11.00
2022-07-26T09:50:33.441Z,6.25
2022-07-26T09:53:13.195Z,7.78
2022-07-26T09:55:46.539Z,6.55
2022-07-26T09:58:15.487Z,5.75
2022-07-26T10:00:43.677Z,6.30
2022-07-26T10:03:10.863Z,5.72
2022-07-26T10:05:38.017Z,9.98
2022-07-26T10:08:06.375Z,16.55
2022-07-26T10:11:08.796Z,6.32
2022-07-26T10:13:35.747Z,5.60
2022-07-26T10:16:02.903Z,8.18
2022-07-26T10:18:39.323Z,7.43
2022-07-26T10:21:16.638Z,6.07
2022-07-26T10:23:45.464Z,8.20
2022-07-26T10:26:31.101Z,6.00
2022-07-26T10:29:18.307Z,7.10
2022-07-26T10:31:46.122Z,7.50
2022-07-26T10:34:40.130Z,7.18
2022-07-26T10:37:10.378Z,7.05
2022-07-26T10:39:38.956Z,9.93
2022-07-26T10:42:11.157Z,9.05
2022-07-26T10:44:40.208Z,6.35
2022-07-26T10:47:07.273Z,8.00
2022-07-26T10:49:38.126Z,7.93
2022-07-26T10:54:59.551Z,6.25
2022-07-26T10:57:31.333Z,6.00
2022-07-26T10:59:59.631Z,7.82
2022-07-26T11:02:32.784Z,8.63
2022-07-26T11:05:10.223Z,6.20
2022-07-26T11:07:50.515Z,6.95
2022-07-26T11:10:26.524Z,7.90
2022-07-26T11:13:00.276Z,6.47
2022-07-26T11:15:27.385Z,6.35
2022-07-26T11:18:10.089Z,6.57
2022-07-26T11:20:37.659Z,7.28
2022-07-26T11:23:18.977Z,6.78
2022-07-26T11:26:10.097Z,5.57
2022-07-26T11:29:06.238Z,6.03
2022-07-26T11:31:55.570Z,6.82
2022-07-26T11:34:29.575Z,4.90
2022-07-26T11:36:58.914Z,7.13
2022-07-26T11:39:31.173Z,6.35
2022-07-26T11:42:19.397Z,5.93
2022-07-26T11:44:47.881Z,5.40
2022-07-26T11:47:19.257Z,5.32
2022-07-26T11:50:00.287Z,5.07
2022-07-26T11:52:33.882Z,10.07
2022-07-26T11:55:00.941Z,7.93
2022-07-26T11:57:29.901Z,10.65
2022-07-26T11:59:58.099Z,6.63
2022-07-26T12:02:25.936Z,8.98
2022-07-26T12:05:17.068Z,9.45
2022-07-26T12:07:55.195Z,6.75
2022-07-26T12:10:22.463Z,7.30
2022-07-26T12:12:49.643Z,8.45
2022-07-26T12:15:16.722Z,5.65
2022-07-26T12:17:59.920Z,11.25
2022-07-26T12:20:26.861Z,5.50
2022-07-26T12:22:54.806Z,5.13
2022-07-26T12:25:26.585Z,7.35
2022-07-26T12:27:53.753Z,5.07
2022-07-26T12:30:21.402Z,6.13
2022-07-26T12:32:49.720Z,7.65
2022-07-26T12:35:18.312Z,6.75
2022-07-26T12:37:48.359Z,6.18
2022-07-26T12:40:16.683Z,7.23
2022-07-26T12:42:44.900Z,7.65
2022-07-26T12:45:13.364Z,6.53
2022-07-26T12:47:43.888Z,8.18
2022-07-26T12:50:12.237Z,5.75
2022-07-26T12:52:39.989Z,6.30
2022-07-26T12:55:09.187Z,5.70
2022-07-26T12:57:36.831Z,5.47
2022-07-26T13:00:06.735Z,7.82
2022-07-26T13:02:33.925Z,8.05
2022-07-26T13:05:01.352Z,7.82
2022-07-26T13:07:28.473Z,7.72
2022-07-26T13:10:30.048Z,7.93
2022-07-26T13:12:42.510Z,8.48
2022-07-26T13:15:09.970Z,8.15
2022-07-26T13:17:36.972Z,8.02
2022-07-26T13:20:04.709Z,8.25
2022-07-26T13:22:31.718Z,8.35
2022-07-26T13:24:59.419Z,8.23
2022-07-26T13:27:35.986Z,8.77
2022-07-26T13:30:04.272Z,8.05
2022-07-26T13:32:31.312Z,9.80
2022-07-26T13:34:58.237Z,8.05
2022-07-26T13:37:25.191Z,8.15
2022-07-26T13:39:52.256Z,7.95
2022-07-26T13:42:19.426Z,8.10
2022-07-26T13:44:46.315Z,8.30
2022-07-26T13:47:13.295Z,7.55
2022-07-26T13:49:40.459Z,8.50
2022-07-26T13:52:10.854Z,9.75
2022-07-26T13:54:42.215Z,8.82
2022-07-26T13:57:09.270Z,10.13
2022-07-26T13:59:36.271Z,15.75
2022-07-26T14:02:03.510Z,11.05
2022-07-26T14:04:33.381Z,13.38
2022-07-26T14:07:00.719Z,14.65
2022-07-26T14:09:27.650Z,12.85
2022-07-26T14:11:54.745Z,13.98
2022-07-26T14:14:21.693Z,13.23
2022-07-26T14:16:49.636Z,14.00
2022-07-26T14:19:17.150Z,13.20
2022-07-26T14:21:58.590Z,14.18
2022-07-26T14:24:27.839Z,14.15
2022-07-26T14:26:58.785Z,13.18
2022-07-26T14:29:27.401Z,12.70
2022-07-26T14:31:54.543Z,12.90
2022-07-26T14:34:21.567Z,13.10
2022-07-26T14:36:48.955Z,14.25
2022-07-26T14:39:15.863Z,14.38
2022-07-26T14:41:42.787Z,13.73
2022-07-26T14:44:09.927Z,13.27
2022-07-26T14:46:37.001Z,16.70
2022-07-26T14:49:04.088Z,13.63
2022-07-26T14:51:31.333Z,11.80
2022-07-26T14:53:58.413Z,12.35
2022-07-26T14:56:25.408Z,11.77
2022-07-26T14:58:52.387Z,10.88
2022-07-26T15:01:19.456Z,10.73
2022-07-26T15:03:46.610Z,11.15
2022-07-26T15:06:13.772Z,11.65
2022-07-26T15:08:40.683Z,11.82
2022-07-26T15:11:07.823Z,11.27
2022-07-26T15:13:35.546Z,12.55
2022-07-26T15:16:02.929Z,10.95
2022-07-26T15:18:30.925Z,10.95
2022-07-26T15:20:58.032Z,11.10
2022-07-26T15:23:25.591Z,11.85
2022-07-26T15:25:52.834Z,11.52
2022-07-26T15:28:19.920Z,12.07
2022-07-26T15:30:46.896Z,11.70
2022-07-26T15:33:13.937Z,11.88
2022-07-26T15:35:41.371Z,12.25
2022-07-26T15:38:08.392Z,12.50
2022-07-26T15:40:35.286Z,13.23
2022-07-26T15:43:02.248Z,14.10
2022-07-26T15:45:30.118Z,13.75
2022-07-26T15:48:13.436Z,13.85
2022-07-26T15:50:44.189Z,16.15
2022-07-26T15:53:14.842Z,15.80
2022-07-26T15:55:41.778Z,15.98
2022-07-26T15:58:08.712Z,16.70
2022-07-26T16:00:35.818Z,16.35
2022-07-26T16:03:02.856Z,17.73
2022-07-26T16:05:30.261Z,17.73
2022-07-26T16:07:57.241Z,17.42
2022-07-26T16:10:24.227Z,16.95
2022-07-26T16:12:51.192Z,17.63
2022-07-26T16:15:18.499Z,16.73
2022-07-26T16:17:45.441Z,17.52
2022-07-26T16:20:12.448Z,18.30
2022-07-26T16:22:39.315Z,17.40
2022-07-26T16:25:07.157Z,17.50
2022-07-26T16:27:34.067Z,18.08
2022-07-26T16:30:01.012Z,18.17
2022-07-26T16:32:28.013Z,17.20
2022-07-26T16:34:54.946Z,17.77
2022-07-26T16:37:21.999Z,17.17
2022-07-26T16:39:48.925Z,18.05
2022-07-26T16:42:16.098Z,18.52
2022-07-26T16:44:42.978Z,18.35
2022-07-26T16:47:10.072Z,17.65
2022-07-26T16:49:37.171Z,20.50
2022-07-26T16:52:04.314Z,18.58
2022-07-26T16:54:31.702Z,18.73
2022-07-26T16:56:59.274Z,18.92
2022-07-26T16:59:27.060Z,18.90
2022-07-26T17:01:54.484Z,18.70
2022-07-26T17:04:21.524Z,18.77
2022-07-26T17:07:14.550Z,19.13
2022-07-26T17:09:36.360Z,19.40
2022-07-26T17:12:06.628Z,19.00
2022-07-26T17:14:34.047Z,19.25
2022-07-26T17:17:00.939Z,18.50
2022-07-26T17:19:27.887Z,18.17
2022-07-26T17:21:54.843Z,18.88
2022-07-26T17:24:21.868Z,17.35
2022-07-26T17:26:48.987Z,17.55
2022-07-26T17:29:16.013Z,16.52
2022-07-26T17:31:43.046Z,17.05
2022-07-26T17:34:10.151Z,16.30
2022-07-26T17:36:37.282Z,17.33
2022-07-26T17:39:04.579Z,16.55
2022-07-26T17:41:33.597Z,16.63
2022-07-26T17:44:01.912Z,17.42
2022-07-26T17:46:29.324Z,15.55
2022-07-26T17:48:56.375Z,16.45
2022-07-26T17:51:23.411Z,16.00
2022-07-26T17:53:53.249Z,15.02
2022-07-26T17:56:20.412Z,15.30
2022-07-26T17:58:47.336Z,15.32
2022-07-26T18:01:14.358Z,15.77
2022-07-26T18:03:41.419Z,15.18
2022-07-26T18:06:08.424Z,14.35
2022-07-26T18:08:35.360Z,13.32
2022-07-26T18:11:02.371Z,13.85
2022-07-26T18:13:29.400Z,12.70
2022-07-26T18:15:57.065Z,12.13
2022-07-26T18:18:24.230Z,12.25
2022-07-26T18:20:51.285Z,11.80
2022-07-26T18:23:18.794Z,12.13
2022-07-26T18:25:45.845Z,11.32
2022-07-26T18:28:12.802Z,10.88
2022-07-26T18:30:39.962Z,10.07
2022-07-26T18:33:07.242Z,10.15
2022-07-26T18:35:34.266Z,9.50
2022-07-26T18:38:01.365Z,10.23
2022-07-26T18:40:28.289Z,8.70
2022-07-26T18:42:55.237Z,8.15
2022-07-26T18:45:22.372Z,14.13
2022-07-26T18:47:49.416Z,8.88
2022-07-26T18:50:16.993Z,8.48
2022-07-26T18:52:44.593Z,7.68
2022-07-26T18:55:13.174Z,10.43
2022-07-26T18:57:41.632Z,12.82
2022-07-26T19:00:14.182Z,8.82
2022-07-26T19:02:42.319Z,7.95
2022-07-26T19:05:09.799Z,6.70
2022-07-26T19:07:37.156Z,6.57
2022-07-26T19:10:06.539Z,5.72
2022-07-26T19:12:33.603Z,6.10
2022-07-26T19:15:00.712Z,5.10
2022-07-26T19:17:30.327Z,6.00
2022-07-26T19:20:00.235Z,5.25
2022-07-26T19:22:27.346Z,4.88
2022-07-26T19:24:54.280Z,5.47
2022-07-26T19:27:21.390Z,5.68
2022-07-26T19:29:48.587Z,5.43
2022-07-26T19:32:15.713Z,4.88
2022-07-26T19:34:42.846Z,5.43
2022-07-26T19:37:09.865Z,5.28
2022-07-26T19:39:36.872Z,4.65
2022-07-26T19:42:04.026Z,4.70
2022-07-26T19:44:30.927Z,4.25
2022-07-26T19:46:58.161Z,4.60
2022-07-26T19:49:25.391Z,4.35
2022-07-26T19:51:52.414Z,6.63
2022-07-26T19:54:19.399Z,4.97
2022-07-26T19:56:46.447Z,4.38
2022-07-26T19:59:16.872Z,4.82
2022-07-26T20:01:46.697Z,4.78
2022-07-26T20:04:13.792Z,4.45
2022-07-26T20:06:41.144Z,3.78
2022-07-26T20:09:08.408Z,3.75
2022-07-26T20:11:35.974Z,3.72
2022-07-26T20:14:03.998Z,4.35
2022-07-26T20:16:31.160Z,5.57
2022-07-26T20:18:58.771Z,4.38
2022-07-26T20:21:25.743Z,4.15
2022-07-26T20:23:52.637Z,3.40
2022-07-26T20:26:19.546Z,3.17
2022-07-26T20:28:46.578Z,4.03
2022-07-26T20:31:16.057Z,3.45
2022-07-26T20:33:43.013Z,3.38
2022-07-26T20:36:09.983Z,3.38
2022-07-26T20:38:36.934Z,4.10
2022-07-26T20:41:03.888Z,3.15
2022-07-26T20:43:32.832Z,4.57
2022-07-26T20:46:01.903Z,2.90
2022-07-26T20:48:28.914Z,3.97
2022-07-26T20:50:55.846Z,4.07
2022-07-26T20:53:22.843Z,5.53
2022-07-26T20:55:49.730Z,4.32
2022-07-26T20:58:16.664Z,3.58
2022-07-26T21:00:43.876Z,4.10
2022-07-26T21:03:10.827Z,3.47
2022-07-26T21:05:37.792Z,3.90
2022-07-26T21:08:05.227Z,3.90
2022-07-26T21:10:32.628Z,3.92
2022-07-26T21:12:59.511Z,3.60
2022-07-26T21:15:26.763Z,3.28
2022-07-26T21:17:53.678Z,3.10
2022-07-26T21:20:20.998Z,4.75
2022-07-26T21:22:48.168Z,3.88
2022-07-26T21:25:15.221Z,4.05
2022-07-26T21:27:42.128Z,4.82
2022-07-26T21:30:09.742Z,4.50
2022-07-26T21:32:36.647Z,4.05
2022-07-26T21:35:04.176Z,5.15
2022-07-26T21:37:31.136Z,3.50
2022-07-26T21:40:00.855Z,2.80
2022-07-26T21:42:28.284Z,3.90
2022-07-26T21:44:55.255Z,4.07
2022-07-26T21:47:22.186Z,4.95
2022-07-26T21:49:49.134Z,3.17
2022-07-26T21:52:16.129Z,3.25
2022-07-26T21:54:43.077Z,2.95
2022-07-26T21:57:10.073Z,3.78
2022-07-26T21:59:37.065Z,5.45
2022-07-26T22:02:04.142Z,4.32
2022-07-26T22:04:31.228Z,5.10
2022-07-26T22:06:58.235Z,3.67
2022-07-26T22:09:25.349Z,3.08
2022-07-26T22:11:53.350Z,4.20
2022-07-26T22:14:21.780Z,3.00
2022-07-26T22:16:49.143Z,3.53
2022-07-26T22:19:16.290Z,3.78
2022-07-26T22:21:43.282Z,3.90
2022-07-26T22:24:10.342Z,4.18
2022-07-26T22:26:38.156Z,3.95
2022-07-26T22:29:05.202Z,4.97
2022-07-26T22:31:32.366Z,4.07
2022-07-26T22:33:59.362Z,6.03
2022-07-26T22:36:26.315Z,3.42
2022-07-26T22:38:53.461Z,3.17
2022-07-26T22:41:20.407Z,4.50
2022-07-26T22:43:47.405Z,3.10
2022-07-26T22:46:14.539Z,5.05
2022-07-26T22:48:44.544Z,4.95
2022-07-26T22:51:14.919Z,4.80
2022-07-26T22:53:41.866Z,3.75
2022-07-26T22:56:08.940Z,3.85
2022-07-26T22:58:35.990Z,6.68
2022-07-26T23:01:03.142Z,3.60
2022-07-26T23:03:30.789Z,5.60
2022-07-26T23:06:00.193Z,4.18
2022-07-26T23:08:46.585Z,2.55
2022-07-26T23:11:14.520Z,3.15
2022-07-26T23:13:41.579Z,3.33
2022-07-26T23:16:08.619Z,3.17
2022-07-26T23:18:36.468Z,3.83
2022-07-26T23:21:04.278Z,4.15
2022-07-26T23:23:31.712Z,3.53
2022-07-26T23:25:59.610Z,3.72
2022-07-26T23:28:36.758Z,3.30
2022-07-26T23:31:10.344Z,3.47
2022-07-26T23:33:51.441Z,3.42
2022-07-26T23:36:28.595Z,3.25
2022-07-26T23:38:57.347Z,3.78
2022-07-26T23:41:25.115Z,4.32
2022-07-26T23:43:52.790Z,3.42
2022-07-26T23:46:20.167Z,4.30
2022-07-26T23:48:47.706Z,3.47
2022-07-26T23:51:14.986Z,3.75
2022-07-26T23:53:42.297Z,4.35
2022-07-26T23:56:09.287Z,7.65
2022-07-26T23:58:36.388Z,3.08
